createdAt,value
2023-06-17T00:02:24.054Z,101448.63
2023-06-17T00:04:52.320Z,101449.94
2023-06-17T00:07:19.387Z,101442.94
2023-06-17T00:09:46.324Z,101443.38
2023-06-17T00:12:13.537Z,101440.13
2023-06-17T00:14:41.904Z,101440.94
2023-06-17T00:17:12.184Z,101435.94
2023-06-17T00:19:39.943Z,101443.50
2023-06-17T00:22:09.636Z,101439.53
2023-06-17T00:24:36.955Z,101441.16
2023-06-17T00:27:04.592Z,101434.47
2023-06-17T00:29:31.508Z,101434.47
2023-06-17T00:31:58.557Z,101445.22
2023-06-17T00:34:25.546Z,101442.53
2023-06-17T00:36:52.448Z,101441.50
2023-06-17T00:39:20.672Z,101442.88
2023-06-17T00:41:47.641Z,101431.88
2023-06-17T00:44:14.558Z,101426.03
2023-06-17T00:46:47.712Z,101419.59
2023-06-17T00:49:15.211Z,101417.97
2023-06-17T00:51:42.882Z,101420.91
2023-06-17T00:54:10.284Z,101419.00
2023-06-17T00:56:40.484Z,101414.13
2023-06-17T00:59:09.214Z,101417.31
2023-06-17T01:01:37.437Z,101422.94
2023-06-17T01:04:07.773Z,101414.59
2023-06-17T01:06:51.679Z,101419.66
2023-06-17T01:09:25.813Z,101410.78
2023-06-17T01:11:58.469Z,101411.00
2023-06-17T01:14:27.417Z,101409.16
2023-06-17T01:16:55.632Z,101416.63
2023-06-17T01:19:25.926Z,101411.75
2023-06-17T01:21:54.541Z,101406.94
2023-06-17T01:24:28.380Z,101408.56
2023-06-17T01:26:57.716Z,101412.66
2023-06-17T01:29:27.222Z,101409.72
2023-06-17T01:31:57.783Z,101410.28
2023-06-17T01:34:35.386Z,101408.91
2023-06-17T01:37:08.719Z,101412.41
2023-06-17T01:39:40.630Z,101426.34
2023-06-17T01:42:15.050Z,101421.88
2023-06-17T01:44:43.554Z,101426.13
2023-06-17T01:47:11.403Z,101421.78
2023-06-17T01:49:38.780Z,101431.50
2023-06-17T01:52:08.172Z,101424.47
2023-06-17T01:54:36.430Z,101422.88
2023-06-17T01:57:03.844Z,101421.78
2023-06-17T01:59:31.548Z,101422.88
2023-06-17T02:01:58.536Z,101424.47
2023-06-17T02:04:25.742Z,101412.13
2023-06-17T02:06:52.843Z,101414.72
2023-06-17T02:09:20.100Z,101410.28
2023-06-17T02:11:48.333Z,101414.03
2023-06-17T02:14:15.309Z,101414.03
2023-06-17T02:16:46.510Z,101409.50
2023-06-17T02:19:15.671Z,101415.09
2023-06-17T02:21:44.057Z,101406.72
2023-06-17T02:24:11.768Z,101403.09
2023-06-17T02:26:38.778Z,101408.94
2023-06-17T02:29:07.104Z,101405.22
2023-06-17T02:31:34.351Z,101404.16
2023-06-17T02:34:02.960Z,101399.94
2023-06-17T02:36:29.945Z,101408.00
2023-06-17T02:39:00.943Z,101399.94
2023-06-17T02:41:27.844Z,101403.09
2023-06-17T02:43:54.821Z,101401.13
2023-06-17T02:46:23.895Z,101402.44
2023-06-17T02:48:51.030Z,101395.91
2023-06-17T02:51:18.100Z,101391.03
2023-06-17T02:53:45.025Z,101396.84
2023-06-17T02:56:12.019Z,101398.97
2023-06-17T02:58:39.978Z,101400.00
2023-06-17T03:01:07.044Z,101395.25
2023-06-17T03:03:35.672Z,101401.19
2023-06-17T03:06:06.480Z,101407.72
2023-06-17T03:08:34.961Z,101406.97
2023-06-17T03:11:02.063Z,101397.06
2023-06-17T03:13:29.551Z,101404.06
2023-06-17T03:15:59.797Z,101408.13
2023-06-17T03:18:27.415Z,101410.13
2023-06-17T03:20:56.043Z,101412.09
2023-06-17T03:23:24.215Z,101415.56
2023-06-17T03:25:52.791Z,101408.66
2023-06-17T03:28:20.035Z,101413.06
2023-06-17T03:30:47.570Z,101412.59
2023-06-17T03:33:15.126Z,101415.38
2023-06-17T03:35:42.166Z,101410.81
2023-06-17T03:38:10.729Z,101408.34
2023-06-17T03:40:37.806Z,101406.75
2023-06-17T03:43:05.035Z,101400.56
2023-06-17T03:45:33.828Z,101396.56
2023-06-17T03:48:00.930Z,101396.56
2023-06-17T03:50:27.849Z,101399.25
2023-06-17T03:52:54.737Z,101397.88
2023-06-17T03:55:23.618Z,101398.13
2023-06-17T03:57:50.784Z,101407.22
2023-06-17T04:00:18.734Z,101408.88
2023-06-17T04:02:46.514Z,101412.13
2023-06-17T04:05:14.406Z,101409.66
2023-06-17T04:07:41.435Z,101401.03
2023-06-17T04:10:10.467Z,101405.56
2023-06-17T04:12:40.008Z,101396.94
2023-06-17T04:15:09.102Z,101391.56
2023-06-17T04:17:37.540Z,101396.94
2023-06-17T04:20:12.005Z,101401.75
2023-06-17T04:22:40.998Z,101392.66
2023-06-17T04:25:10.763Z,101404.53
2023-06-17T04:27:39.857Z,101402.41
2023-06-17T04:30:09.815Z,101401.38
2023-06-17T04:32:40.091Z,101393.88
2023-06-17T04:35:08.373Z,101396.09
2023-06-17T04:37:35.563Z,101392.81
2023-06-17T04:40:05.847Z,101403.81
2023-06-17T04:42:34.778Z,101412.13
2023-06-17T04:45:03.778Z,101402.66
2023-06-17T04:47:30.764Z,101399.41
2023-06-17T04:49:57.848Z,101407.22
2023-06-17T04:52:25.681Z,101395.50
2023-06-17T04:54:52.809Z,101402.38
2023-06-17T04:57:19.945Z,101401.66
2023-06-17T04:59:47.037Z,101405.97
2023-06-17T05:02:15.611Z,101397.91
2023-06-17T05:04:42.563Z,101394.41
2023-06-17T05:07:09.515Z,101398.97
2023-06-17T05:09:36.412Z,101395.72
2023-06-17T05:12:03.708Z,101397.81
2023-06-17T05:14:30.707Z,101394.31
2023-06-17T05:16:57.743Z,101390.34
2023-06-17T05:19:26.031Z,101400.59
2023-06-17T05:21:52.980Z,101396.63
2023-06-17T05:24:19.963Z,101393.09
2023-06-17T05:26:47.131Z,101393.44
2023-06-17T05:29:14.068Z,101396.28
2023-06-17T05:31:41.052Z,101399.63
2023-06-17T05:34:08.025Z,101406.16
2023-06-17T05:36:36.314Z,101405.44
2023-06-17T05:39:03.419Z,101407.03
2023-06-17T05:41:30.423Z,101408.94
2023-06-17T05:43:57.327Z,101406.47
2023-06-17T05:46:24.347Z,101410.00
2023-06-17T05:48:51.303Z,101406.00
2023-06-17T05:51:18.327Z,101414.97
2023-06-17T05:53:47.147Z,101414.78
2023-06-17T05:56:14.166Z,101413.22
2023-06-17T05:58:41.098Z,101410.88
2023-06-17T06:01:08.060Z,101415.75
2023-06-17T06:03:35.024Z,101411.66
2023-06-17T06:06:02.011Z,101420.81
2023-06-17T06:08:29.024Z,101421.63
2023-06-17T06:10:57.280Z,101423.06
2023-06-17T06:13:24.278Z,101422.13
2023-06-17T06:15:51.370Z,101426.50
2023-06-17T06:18:18.362Z,101428.47
2023-06-17T06:20:45.297Z,101420.72
2023-06-17T06:23:12.497Z,101421.28
2023-06-17T06:25:39.456Z,101418.34
2023-06-17T06:28:07.817Z,101429.50
2023-06-17T06:30:34.764Z,101424.19
2023-06-17T06:33:01.785Z,101432.09
2023-06-17T06:35:28.757Z,101426.44
2023-06-17T06:37:55.715Z,101442.09
2023-06-17T06:40:22.889Z,101438.84
2023-06-17T06:42:50.048Z,101433.94
2023-06-17T06:45:18.735Z,101442.59
2023-06-17T06:47:45.756Z,101437.22
2023-06-17T06:50:12.805Z,101443.69
2023-06-17T06:52:39.815Z,101446.84
2023-06-17T06:55:07.668Z,101446.84
2023-06-17T06:57:34.647Z,101445.28
2023-06-17T07:00:01.808Z,101442.66
2023-06-17T07:02:30.648Z,101450.81
2023-06-17T07:04:57.773Z,101449.56
2023-06-17T07:07:24.782Z,101447.25
2023-06-17T07:09:51.697Z,101447.09
2023-06-17T07:12:18.690Z,101452.78
2023-06-17T07:14:45.665Z,101447.72
2023-06-17T07:17:12.649Z,101444.22
2023-06-17T07:19:40.960Z,101450.38
2023-06-17T07:22:09.035Z,101456.56
2023-06-17T07:24:36.079Z,101451.19
2023-06-17T07:27:03.668Z,101468.47
2023-06-17T07:29:31.185Z,101460.38
2023-06-17T07:31:58.160Z,101466.00
2023-06-17T07:34:25.971Z,101466.25
2023-06-17T07:36:54.243Z,101467.91
2023-06-17T07:39:21.337Z,101470.59
2023-06-17T07:41:48.336Z,101476.47
2023-06-17T07:44:15.430Z,101472.66
2023-06-17T07:46:42.432Z,101467.19
2023-06-17T07:49:09.482Z,101464.72
2023-06-17T07:51:38.123Z,101467.50
2023-06-17T07:54:06.683Z,101462.44
2023-06-17T07:56:33.645Z,101463.31
2023-06-17T07:59:00.579Z,101467.44
2023-06-17T08:01:28.133Z,101467.78
2023-06-17T08:03:55.449Z,101463.50
2023-06-17T08:06:23.552Z,101469.50
2023-06-17T08:08:51.251Z,101459.59
2023-06-17T08:11:19.976Z,101460.56
2023-06-17T08:13:47.262Z,101463.69
2023-06-17T08:16:14.307Z,101466.00
2023-06-17T08:18:41.605Z,101462.31
2023-06-17T08:21:08.587Z,101463.72
2023-06-17T08:23:35.699Z,101461.59
2023-06-17T08:26:02.633Z,101463.50
2023-06-17T08:28:30.868Z,101460.56
2023-06-17T08:30:57.758Z,101458.69
2023-06-17T08:33:24.679Z,101467.47
2023-06-17T08:35:51.671Z,101462.22
2023-06-17T08:38:18.585Z,101464.22
2023-06-17T08:40:48.736Z,101463.50
2023-06-17T08:43:20.916Z,101467.88
2023-06-17T08:45:50.629Z,101474.44
2023-06-17T08:48:18.499Z,101468.50
2023-06-17T08:50:50.052Z,101464.19
2023-06-17T08:53:17.970Z,101470.13
2023-06-17T08:55:45.618Z,101471.47
2023-06-17T08:58:12.816Z,101474.47
2023-06-17T09:00:40.123Z,101467.19
2023-06-17T09:03:10.173Z,101466.34
2023-06-17T09:05:37.327Z,101474.16
2023-06-17T09:08:05.164Z,101464.72
2023-06-17T09:10:43.697Z,101462.78
2023-06-17T09:13:10.994Z,101463.09
2023-06-17T09:15:41.347Z,101458.56
2023-06-17T09:18:09.895Z,101457.00
2023-06-17T09:20:36.889Z,101460.13
2023-06-17T09:23:03.920Z,101461.41
2023-06-17T09:25:36.355Z,101456.19
2023-06-17T09:28:16.131Z,101453.91
2023-06-17T09:30:45.218Z,101464.63
2023-06-17T09:33:21.565Z,101466.97
2023-06-17T09:35:58.649Z,101466.84
2023-06-17T09:38:25.684Z,101466.06
2023-06-17T09:40:53.784Z,101466.44
2023-06-17T09:43:28.322Z,101460.19
2023-06-17T09:46:00.416Z,101457.03
2023-06-17T09:48:33.867Z,101456.34
2023-06-17T09:51:01.685Z,101459.28
2023-06-17T09:53:31.246Z,101455.53
2023-06-17T09:56:01.098Z,101460.09
2023-06-17T09:58:30.396Z,101464.13
2023-06-17T10:00:58.913Z,101458.28
2023-06-17T10:03:26.828Z,101450.56
2023-06-17T10:06:02.298Z,101453.88
2023-06-17T10:08:31.998Z,101459.34
2023-06-17T10:11:01.334Z,101459.31
2023-06-17T10:13:35.608Z,101463.66
2023-06-17T10:16:07.228Z,101457.88
2023-06-17T10:18:37.967Z,101457.91
2023-06-17T10:21:10.015Z,101463.94
2023-06-17T10:23:38.709Z,101458.31
2023-06-17T10:26:07.121Z,101457.38
2023-06-17T10:28:45.691Z,101462.22
2023-06-17T10:31:27.419Z,101454.28
2023-06-17T10:33:56.085Z,101456.00
2023-06-17T10:36:26.893Z,101459.34
2023-06-17T10:38:56.739Z,101457.28
2023-06-17T10:41:52.178Z,101455.69
2023-06-17T10:44:42.327Z,101452.06
2023-06-17T10:47:23.597Z,101438.84
2023-06-17T10:49:53.515Z,101444.47
2023-06-17T10:52:21.946Z,101441.78
2023-06-17T10:54:54.088Z,101437.00
2023-06-17T10:57:34.297Z,101424.34
2023-06-17T11:00:08.011Z,101424.94
2023-06-17T11:02:38.490Z,101425.66
2023-06-17T11:05:07.627Z,101433.44
2023-06-17T11:07:36.457Z,101422.91
2023-06-17T11:10:04.491Z,101420.75
2023-06-17T11:12:31.650Z,101425.53
2023-06-17T11:15:01.134Z,101417.31
2023-06-17T11:17:28.636Z,101416.16
2023-06-17T11:19:56.227Z,101421.13
2023-06-17T11:22:23.941Z,101422.53
2023-06-17T11:24:52.272Z,101411.41
2023-06-17T11:27:19.444Z,101415.28
2023-06-17T11:29:48.553Z,101411.53
2023-06-17T11:32:15.644Z,101414.56
2023-06-17T11:34:43.243Z,101407.88
2023-06-17T11:37:12.377Z,101413.34
2023-06-17T11:39:40.280Z,101398.47
2023-06-17T11:42:10.405Z,101404.97
2023-06-17T11:44:38.421Z,101403.50
2023-06-17T11:47:07.683Z,101406.66
2023-06-17T11:49:35.581Z,101399.97
2023-06-17T11:52:07.123Z,101396.94
2023-06-17T11:54:34.155Z,101395.94
2023-06-17T11:57:01.357Z,101406.38
2023-06-17T11:59:30.983Z,101398.88
2023-06-17T12:01:57.974Z,101397.31
2023-06-17T12:04:25.217Z,101392.72
2023-06-17T12:06:53.904Z,101391.13
2023-06-17T12:09:22.256Z,101398.78
2023-06-17T12:11:49.347Z,101394.72
2023-06-17T12:14:17.009Z,101393.34
2023-06-17T12:16:47.870Z,101389.75
2023-06-17T12:19:23.071Z,101378.78
2023-06-17T12:21:50.780Z,101379.59
2023-06-17T12:24:18.649Z,101374.97
2023-06-17T12:26:45.744Z,101383.06
2023-06-17T12:29:24.164Z,101370.13
2023-06-17T12:31:54.769Z,101373.31
2023-06-17T12:34:21.760Z,101376.81
2023-06-17T12:36:48.881Z,101366.06
2023-06-17T12:39:15.859Z,101362.75
2023-06-17T12:41:44.451Z,101361.97
2023-06-17T12:44:11.536Z,101358.06
2023-06-17T12:46:39.194Z,101353.94
2023-06-17T12:49:07.593Z,101354.94
2023-06-17T12:51:35.346Z,101343.41
2023-06-17T12:54:02.260Z,101347.34
2023-06-17T12:56:29.164Z,101341.53
2023-06-17T12:58:56.117Z,101343.16
2023-06-17T13:01:23.298Z,101344.19
2023-06-17T13:03:50.274Z,101342.47
2023-06-17T13:06:20.248Z,101336.75
2023-06-17T13:08:47.165Z,101332.31
2023-06-17T13:11:14.059Z,101333.63
2023-06-17T13:13:41.023Z,101332.72
2023-06-17T13:16:08.928Z,101329.09
2023-06-17T13:18:35.913Z,101341.00
2023-06-17T13:21:02.784Z,101328.59
2023-06-17T13:23:31.373Z,101329.81
2023-06-17T13:25:58.339Z,101323.16
2023-06-17T13:28:25.326Z,101326.19
2023-06-17T13:30:52.883Z,101313.47
2023-06-17T13:33:19.768Z,101321.66
2023-06-17T13:35:47.067Z,101322.25
2023-06-17T13:38:14.104Z,101322.06
2023-06-17T13:40:42.353Z,101327.09
2023-06-17T13:43:09.420Z,101321.47
2023-06-17T13:45:36.354Z,101320.88
2023-06-17T13:48:04.640Z,101322.06
2023-06-17T13:50:32.188Z,101307.31
2023-06-17T13:52:59.808Z,101314.47
2023-06-17T13:55:27.159Z,101314.38
2023-06-17T13:57:55.430Z,101321.44
2023-06-17T14:00:22.795Z,101318.41
2023-06-17T14:02:50.130Z,101321.28
2023-06-17T14:05:17.706Z,101309.97
2023-06-17T14:07:44.717Z,101312.81
2023-06-17T14:10:12.673Z,101312.38
2023-06-17T14:12:39.609Z,101312.59
2023-06-17T14:15:10.876Z,101301.78
2023-06-17T14:17:37.922Z,101297.53
2023-06-17T14:20:06.424Z,101291.88
2023-06-17T14:22:33.560Z,101290.53
2023-06-17T14:25:00.490Z,101288.50
2023-06-17T14:27:38.653Z,101289.13
2023-06-17T14:30:11.155Z,101278.22
2023-06-17T14:32:38.700Z,101283.84
2023-06-17T14:35:07.365Z,101277.28
2023-06-17T14:37:34.506Z,101273.75
2023-06-17T14:40:01.425Z,101270.53
2023-06-17T14:42:28.673Z,101272.25
2023-06-17T14:44:55.650Z,101270.63
2023-06-17T14:47:24.458Z,101268.28
2023-06-17T14:49:51.471Z,101270.28
2023-06-17T14:52:18.761Z,101268.63
2023-06-17T14:54:45.840Z,101280.13
2023-06-17T14:57:13.455Z,101270.00
2023-06-17T14:59:41.049Z,101270.63
2023-06-17T15:02:38.382Z,101263.16
2023-06-17T15:05:06.438Z,101254.22
2023-06-17T15:07:33.365Z,101253.53
2023-06-17T15:10:00.276Z,101250.78
2023-06-17T15:12:27.228Z,101258.56
2023-06-17T15:14:54.607Z,101253.38
2023-06-17T15:17:22.032Z,101262.72
2023-06-17T15:19:50.384Z,101264.56
2023-06-17T15:22:17.324Z,101257.56
2023-06-17T15:24:44.258Z,101258.84
2023-06-17T15:27:11.236Z,101259.81
2023-06-17T15:29:38.260Z,101256.47
2023-06-17T15:32:06.493Z,101258.97
2023-06-17T15:34:33.505Z,101259.44
2023-06-17T15:37:01.968Z,101261.78
2023-06-17T15:39:29.572Z,101262.44
2023-06-17T15:41:56.520Z,101261.44
2023-06-17T15:44:23.731Z,101257.81
2023-06-17T15:46:51.354Z,101266.09
2023-06-17T15:49:18.766Z,101266.81
2023-06-17T15:51:45.796Z,101263.06
2023-06-17T15:54:14.399Z,101275.72
2023-06-17T15:56:46.865Z,101269.59
2023-06-17T15:59:13.922Z,101261.09
2023-06-17T16:01:41.054Z,101262.78
2023-06-17T16:04:33.227Z,101271.56
2023-06-17T16:07:00.978Z,101265.97
2023-06-17T16:09:32.597Z,101260.56
2023-06-17T16:12:00.773Z,101261.44
2023-06-17T16:14:29.520Z,101263.06
2023-06-17T16:16:57.124Z,101259.88
2023-06-17T16:19:26.390Z,101266.63
2023-06-17T16:21:54.404Z,101259.41
2023-06-17T16:24:22.025Z,101269.84
2023-06-17T16:26:50.627Z,101250.06
2023-06-17T16:29:18.230Z,101253.75
2023-06-17T16:31:45.925Z,101247.44
2023-06-17T16:34:13.523Z,101259.84
2023-06-17T16:36:41.030Z,101257.78
2023-06-17T16:39:10.068Z,101258.28
2023-06-17T16:41:37.627Z,101252.00
2023-06-17T16:44:05.902Z,101253.72
2023-06-17T16:46:32.883Z,101252.44
2023-06-17T16:49:00.201Z,101246.16
2023-06-17T16:51:29.609Z,101259.50
2023-06-17T16:53:56.882Z,101253.94
2023-06-17T16:56:23.941Z,101263.22
2023-06-17T16:58:51.402Z,101256.63
2023-06-17T17:01:19.736Z,101253.88
2023-06-17T17:03:47.058Z,101254.59
2023-06-17T17:06:14.343Z,101255.66
2023-06-17T17:08:41.310Z,101257.19
2023-06-17T17:11:08.562Z,101255.19
2023-06-17T17:13:47.955Z,101255.84
2023-06-17T17:16:16.251Z,101255.03
2023-06-17T17:18:44.602Z,101261.34
2023-06-17T17:21:11.802Z,101261.75
2023-06-17T17:23:40.509Z,101256.69
2023-06-17T17:26:08.106Z,101260.97
2023-06-17T17:28:35.056Z,101264.13
2023-06-17T17:31:03.409Z,101260.91
2023-06-17T17:33:30.581Z,101267.59
2023-06-17T17:35:58.959Z,101267.38
2023-06-17T17:38:25.960Z,101266.66
2023-06-17T17:40:53.116Z,101272.53
2023-06-17T17:43:20.270Z,101272.91
2023-06-17T17:45:47.223Z,101282.00
2023-06-17T17:48:14.284Z,101288.38
2023-06-17T17:50:41.186Z,101285.75
2023-06-17T17:53:09.846Z,101290.78
2023-06-17T17:55:36.823Z,101288.75
2023-06-17T17:58:04.010Z,101292.38
2023-06-17T18:00:31.020Z,101292.47
2023-06-17T18:02:58.007Z,101296.59
2023-06-17T18:05:25.028Z,101301.44
2023-06-17T18:07:53.713Z,101301.28
2023-06-17T18:10:22.746Z,101303.88
2023-06-17T18:12:49.926Z,101309.72
2023-06-17T18:15:16.964Z,101308.19
2023-06-17T18:17:43.959Z,101302.13
2023-06-17T18:20:11.650Z,101303.09
2023-06-17T18:22:38.722Z,101307.56
2023-06-17T18:25:06.922Z,101309.91
2023-06-17T18:27:37.016Z,101311.97
2023-06-17T18:30:05.924Z,101308.59
2023-06-17T18:32:33.581Z,101304.38
2023-06-17T18:35:01.032Z,101303.38
2023-06-17T18:37:27.984Z,101300.22
2023-06-17T18:39:54.886Z,101294.34
2023-06-17T18:42:24.106Z,101294.97
2023-06-17T18:44:52.446Z,101301.56
2023-06-17T18:47:19.379Z,101309.78
2023-06-17T18:49:47.162Z,101305.22
2023-06-17T18:52:15.527Z,101309.63
2023-06-17T18:54:42.458Z,101319.41
2023-06-17T18:57:09.354Z,101313.78
2023-06-17T18:59:36.328Z,101313.81
2023-06-17T19:02:05.528Z,101320.09
2023-06-17T19:04:32.491Z,101326.38
2023-06-17T19:06:59.470Z,101331.88
2023-06-17T19:09:26.661Z,101330.00
2023-06-17T19:11:54.508Z,101330.31
2023-06-17T19:14:21.480Z,101335.28
2023-06-17T19:16:49.950Z,101338.63
2023-06-17T19:19:18.356Z,101331.34
2023-06-17T19:21:45.370Z,101334.34
2023-06-17T19:24:12.312Z,101337.66
2023-06-17T19:26:39.634Z,101337.41
2023-06-17T19:29:06.606Z,101337.44
2023-06-17T19:31:33.586Z,101343.19
2023-06-17T19:34:00.634Z,101344.34
2023-06-17T19:36:28.901Z,101341.66
2023-06-17T19:38:55.851Z,101349.59
2023-06-17T19:41:22.784Z,101348.28
2023-06-17T19:43:54.575Z,101350.19
2023-06-17T19:46:22.954Z,101352.09
2023-06-17T19:48:50.095Z,101355.09
2023-06-17T19:51:17.239Z,101347.28
2023-06-17T19:53:45.563Z,101348.38
2023-06-17T19:56:13.147Z,101353.84
2023-06-17T19:58:40.329Z,101356.56
2023-06-17T20:01:07.538Z,101362.81
2023-06-17T20:03:34.708Z,101355.50
2023-06-17T20:06:01.853Z,101353.09
2023-06-17T20:08:29.091Z,101359.34
2023-06-17T20:10:57.434Z,101359.88
2023-06-17T20:13:24.452Z,101366.41
2023-06-17T20:15:52.509Z,101373.72
2023-06-17T20:18:19.496Z,101371.81
2023-06-17T20:20:46.626Z,101374.53
2023-06-17T20:23:13.673Z,101369.69
2023-06-17T20:25:40.695Z,101376.72
2023-06-17T20:28:09.024Z,101364.28
2023-06-17T20:30:36.210Z,101364.28
2023-06-17T20:33:03.421Z,101367.00
2023-06-17T20:35:30.376Z,101378.91
2023-06-17T20:37:57.794Z,101377.56
2023-06-17T20:40:24.720Z,101383.22
2023-06-17T20:42:51.709Z,101381.34
2023-06-17T20:45:20.068Z,101380.56
2023-06-17T20:47:47.044Z,101383.50
2023-06-17T20:50:13.992Z,101377.84
2023-06-17T20:52:41.106Z,101382.97
2023-06-17T20:55:09.434Z,101381.59
2023-06-17T20:57:36.420Z,101380.50
2023-06-17T21:00:04.016Z,101381.59
2023-06-17T21:02:32.356Z,101388.88
2023-06-17T21:04:59.323Z,101386.97
2023-06-17T21:07:26.284Z,101387.22
2023-06-17T21:09:53.714Z,101381.84
2023-06-17T21:12:22.077Z,101379.66
2023-06-17T21:14:49.100Z,101379.63
2023-06-17T21:17:16.360Z,101380.94
2023-06-17T21:19:44.877Z,101377.66
2023-06-17T21:22:11.829Z,101371.16
2023-06-17T21:24:39.018Z,101377.09
2023-06-17T21:27:11.794Z,101377.84
2023-06-17T21:29:39.478Z,101369.97
2023-06-17T21:32:09.455Z,101372.38
2023-06-17T21:34:36.694Z,101375.31
2023-06-17T21:37:05.978Z,101374.75
2023-06-17T21:39:32.955Z,101375.78
2023-06-17T21:42:00.229Z,101373.00
2023-06-17T21:44:27.283Z,101370.28
2023-06-17T21:46:54.263Z,101367.56
2023-06-17T21:49:21.441Z,101371.03
2023-06-17T21:51:49.861Z,101367.50
2023-06-17T21:54:18.192Z,101368.53
2023-06-17T21:56:45.105Z,101359.59
2023-06-17T21:59:12.083Z,101363.88
2023-06-17T22:01:39.204Z,101370.03
2023-06-17T22:04:06.591Z,101361.91
2023-06-17T22:06:33.685Z,101359.19
2023-06-17T22:09:00.659Z,101359.16
2023-06-17T22:11:28.891Z,101368.81
2023-06-17T22:13:55.875Z,101369.31
2023-06-17T22:16:22.900Z,101367.69
2023-06-17T22:18:49.932Z,101371.44
2023-06-17T22:21:16.972Z,101369.81
2023-06-17T22:23:44.060Z,101370.34
2023-06-17T22:26:10.957Z,101374.91
2023-06-17T22:28:39.331Z,101372.75
2023-06-17T22:31:06.325Z,101380.63
2023-06-17T22:33:33.322Z,101373.59
2023-06-17T22:36:00.619Z,101381.63
2023-06-17T22:38:27.522Z,101382.94
2023-06-17T22:40:54.517Z,101381.03
2023-06-17T22:43:21.494Z,101381.84
2023-06-17T22:45:50.039Z,101382.09
2023-06-17T22:48:17.117Z,101381.56
2023-06-17T22:50:44.063Z,101377.47
2023-06-17T22:53:11.057Z,101379.63
2023-06-17T22:55:38.098Z,101372.31
2023-06-17T22:58:05.074Z,101374.78
2023-06-17T23:00:32.289Z,101376.66
2023-06-17T23:03:00.714Z,101375.56
2023-06-17T23:05:27.876Z,101372.09
2023-06-17T23:07:54.814Z,101375.28
2023-06-17T23:10:21.953Z,101379.88
2023-06-17T23:12:49.178Z,101376.94
2023-06-17T23:15:16.254Z,101378.53
2023-06-17T23:17:43.348Z,101378.81
2023-06-17T23:20:12.455Z,101378.81
2023-06-17T23:22:39.402Z,101378.53
2023-06-17T23:25:08.641Z,101374.53
2023-06-17T23:27:35.658Z,101374.53
2023-06-17T23:30:02.756Z,101381.56
2023-06-17T23:32:29.913Z,101383.97
2023-06-17T23:34:57.389Z,101386.69
2023-06-17T23:37:26.510Z,101384.25
2023-06-17T23:39:53.653Z,101389.06
2023-06-17T23:42:20.627Z,101385.81
2023-06-17T23:44:49.213Z,101385.53
2023-06-17T23:47:18.059Z,101386.84
2023-06-17T23:49:45.886Z,101378.44
2023-06-17T23:52:13.347Z,101378.69
2023-06-17T23:54:42.038Z,101376.28
2023-06-17T23:57:09.184Z,101377.88
2023-06-17T23:59:36.387Z,101381.66
